sensor_id;sensor_type;location;lat;lon;timestamp;P1;P2;P0
60245;PMS5003;46107;53.356;-1.524;2023-03-24T00:00:58;10;9;
60245;PMS5003;46107;53.356;-1.524;2023-03-24T00:03:25;11;11;
60245;PMS5003;46107;53.356;-1.524;2023-03-24T00:08:54;7;7;
60245;PMS5003;46107;53.356;-1.524;2023-03-24T00:11:21;7;5;
60245;PMS5003;46107;53.356;-1.524;2023-03-24T00:13:48;9;7;
60245;PMS5003;46107;53.356;-1.524;2023-03-24T00:16:16;9;8;
60245;PMS5003;46107;53.356;-1.524;2023-03-24T00:18:44;7;6;
60245;PMS5003;46107;53.356;-1.524;2023-03-24T00:21:12;7;7;
60245;PMS5003;46107;53.356;-1.524;2023-03-24T00:23:39;6;5;
60245;PMS5003;46107;53.356;-1.524;2023-03-24T00:26:08;7;7;
60245;PMS5003;46107;53.356;-1.524;2023-03-24T00:28:38;7;4;
60245;PMS5003;46107;53.356;-1.524;2023-03-24T00:31:05;7;4;
60245;PMS5003;46107;53.356;-1.524;2023-03-24T00:33:34;5;5;
60245;PMS5003;46107;53.356;-1.524;2023-03-24T00:36:03;7;6;
60245;PMS5003;46107;53.356;-1.524;2023-03-24T00:38:34;5;4;
60245;PMS5003;46107;53.356;-1.524;2023-03-24T00:41:01;5;3;
60245;PMS5003;46107;53.356;-1.524;2023-03-24T00:43:30;5;3;
60245;PMS5003;46107;53.356;-1.524;2023-03-24T00:45:58;4;4;
60245;PMS5003;46107;53.356;-1.524;2023-03-24T00:48:27;5;2;
60245;PMS5003;46107;53.356;-1.524;2023-03-24T00:50:55;5;5;
60245;PMS5003;46107;53.356;-1.524;2023-03-24T00:53:23;5;4;
60245;PMS5003;46107;53.356;-1.524;2023-03-24T00:55:51;6;4;
60245;PMS5003;46107;53.356;-1.524;2023-03-24T00:58:19;8;3;
60245;PMS5003;46107;53.356;-1.524;2023-03-24T01:00:47;3;2;
60245;PMS5003;46107;53.356;-1.524;2023-03-24T01:03:17;4;3;
60245;PMS5003;46107;53.356;-1.524;2023-03-24T01:05:46;7;3;
60245;PMS5003;46107;53.356;-1.524;2023-03-24T01:08:14;8;2;
60245;PMS5003;46107;53.356;-1.524;2023-03-24T01:10:43;4;4;
60245;PMS5003;46107;53.356;-1.524;2023-03-24T01:13:13;4;4;
60245;PMS5003;46107;53.356;-1.524;2023-03-24T01:15:40;4;4;
60245;PMS5003;46107;53.356;-1.524;2023-03-24T01:18:08;5;4;
60245;PMS5003;46107;53.356;-1.524;2023-03-24T01:20:35;7;3;
60245;PMS5003;46107;53.356;-1.524;2023-03-24T01:23:03;5;3;
60245;PMS5003;46107;53.356;-1.524;2023-03-24T01:25:31;4;3;
60245;PMS5003;46107;53.356;-1.524;2023-03-24T01:28:00;7;4;
60245;PMS5003;46107;53.356;-1.524;2023-03-24T01:30:28;4;3;
60245;PMS5003;46107;53.356;-1.524;2023-03-24T01:32:56;5;4;
60245;PMS5003;46107;53.356;-1.524;2023-03-24T01:35:24;2;2;
60245;PMS5003;46107;53.356;-1.524;2023-03-24T01:37:52;7;5;
60245;PMS5003;46107;53.356;-1.524;2023-03-24T01:40:20;4;4;
60245;PMS5003;46107;53.356;-1.524;2023-03-24T01:42:49;5;2;
60245;PMS5003;46107;53.356;-1.524;2023-03-24T01:45:39;9;4;
60245;PMS5003;46107;53.356;-1.524;2023-03-24T01:48:12;4;4;
60245;PMS5003;46107;53.356;-1.524;2023-03-24T01:50:41;4;2;
60245;PMS5003;46107;53.356;-1.524;2023-03-24T01:53:11;3;3;
60245;PMS5003;46107;53.356;-1.524;2023-03-24T01:55:39;4;2;
60245;PMS5003;46107;53.356;-1.524;2023-03-24T01:58:09;6;4;
60245;PMS5003;46107;53.356;-1.524;2023-03-24T02:00:37;7;6;
60245;PMS5003;46107;53.356;-1.524;2023-03-24T02:03:06;4;3;
60245;PMS5003;46107;53.356;-1.524;2023-03-24T02:05:39;4;3;
60245;PMS5003;46107;53.356;-1.524;2023-03-24T02:08:11;7;4;
60245;PMS5003;46107;53.356;-1.524;2023-03-24T02:10:45;6;4;
60245;PMS5003;46107;53.356;-1.524;2023-03-24T02:13:14;7;4;
60245;PMS5003;46107;53.356;-1.524;2023-03-24T02:15:44;10;6;
60245;PMS5003;46107;53.356;-1.524;2023-03-24T02:18:32;3;2;
60245;PMS5003;46107;53.356;-1.524;2023-03-24T02:22:18;6;3;
60245;PMS5003;46107;53.356;-1.524;2023-03-24T02:25:09;4;3;
60245;PMS5003;46107;53.356;-1.524;2023-03-24T02:27:55;6;3;
60245;PMS5003;46107;53.356;-1.524;2023-03-24T02:30:45;5;3;
60245;PMS5003;46107;53.356;-1.524;2023-03-24T02:34:08;4;4;
60245;PMS5003;46107;53.356;-1.524;2023-03-24T02:36:56;4;2;
60245;PMS5003;46107;53.356;-1.524;2023-03-24T02:40:14;6;5;
60245;PMS5003;46107;53.356;-1.524;2023-03-24T02:42:53;5;4;
60245;PMS5003;46107;53.356;-1.524;2023-03-24T02:45:32;9;5;
60245;PMS5003;46107;53.356;-1.524;2023-03-24T02:48:08;3;2;
60245;PMS5003;46107;53.356;-1.524;2023-03-24T02:50:48;5;3;
60245;PMS5003;46107;53.356;-1.524;2023-03-24T02:53:21;6;4;
60245;PMS5003;46107;53.356;-1.524;2023-03-24T02:55:57;4;2;
60245;PMS5003;46107;53.356;-1.524;2023-03-24T02:58:33;1;1;
60245;PMS5003;46107;53.356;-1.524;2023-03-24T03:01:05;7;4;
60245;PMS5003;46107;53.356;-1.524;2023-03-24T03:03:38;6;4;
60245;PMS5003;46107;53.356;-1.524;2023-03-24T03:06:11;4;2;
60245;PMS5003;46107;53.356;-1.524;2023-03-24T03:08:43;5;3;
60245;PMS5003;46107;53.356;-1.524;2023-03-24T03:11:13;3;1;
60245;PMS5003;46107;53.356;-1.524;2023-03-24T03:13:42;5;3;
60245;PMS5003;46107;53.356;-1.524;2023-03-24T03:16:17;5;5;
60245;PMS5003;46107;53.356;-1.524;2023-03-24T03:18:48;2;2;
60245;PMS5003;46107;53.356;-1.524;2023-03-24T03:21:22;3;3;
60245;PMS5003;46107;53.356;-1.524;2023-03-24T03:23:53;4;3;
60245;PMS5003;46107;53.356;-1.524;2023-03-24T03:26:24;5;4;
60245;PMS5003;46107;53.356;-1.524;2023-03-24T03:28:54;6;6;
60245;PMS5003;46107;53.356;-1.524;2023-03-24T03:31:27;4;2;
60245;PMS5003;46107;53.356;-1.524;2023-03-24T03:34:02;3;3;
60245;PMS5003;46107;53.356;-1.524;2023-03-24T03:36:38;3;3;
60245;PMS5003;46107;53.356;-1.524;2023-03-24T03:39:14;3;3;
60245;PMS5003;46107;53.356;-1.524;2023-03-24T03:41:46;9;7;
60245;PMS5003;46107;53.356;-1.524;2023-03-24T03:44:14;5;4;
60245;PMS5003;46107;53.356;-1.524;2023-03-24T03:46:41;5;2;
60245;PMS5003;46107;53.356;-1.524;2023-03-24T03:49:09;5;4;
60245;PMS5003;46107;53.356;-1.524;2023-03-24T03:51:37;3;3;
60245;PMS5003;46107;53.356;-1.524;2023-03-24T03:54:05;4;2;
60245;PMS5003;46107;53.356;-1.524;2023-03-24T03:56:36;5;4;
60245;PMS5003;46107;53.356;-1.524;2023-03-24T03:59:05;2;2;
60245;PMS5003;46107;53.356;-1.524;2023-03-24T04:01:34;3;3;
60245;PMS5003;46107;53.356;-1.524;2023-03-24T04:04:08;5;3;
60245;PMS5003;46107;53.356;-1.524;2023-03-24T04:06:47;8;4;
60245;PMS5003;46107;53.356;-1.524;2023-03-24T04:09:30;2;1;
60245;PMS5003;46107;53.356;-1.524;2023-03-24T04:12:08;5;3;
60245;PMS5003;46107;53.356;-1.524;2023-03-24T04:14:50;5;4;
60245;PMS5003;46107;53.356;-1.524;2023-03-24T04:17:39;4;3;
60245;PMS5003;46107;53.356;-1.524;2023-03-24T04:20:17;6;3;
60245;PMS5003;46107;53.356;-1.524;2023-03-24T04:22:53;5;4;
60245;PMS5003;46107;53.356;-1.524;2023-03-24T04:25:32;6;5;
60245;PMS5003;46107;53.356;-1.524;2023-03-24T04:28:11;2;2;
60245;PMS5003;46107;53.356;-1.524;2023-03-24T04:30:46;5;3;
60245;PMS5003;46107;53.356;-1.524;2023-03-24T04:33:20;6;3;
60245;PMS5003;46107;53.356;-1.524;2023-03-24T04:35:54;3;3;
60245;PMS5003;46107;53.356;-1.524;2023-03-24T04:38:28;3;2;
60245;PMS5003;46107;53.356;-1.524;2023-03-24T04:40:57;6;3;
60245;PMS5003;46107;53.356;-1.524;2023-03-24T04:43:27;2;2;
60245;PMS5003;46107;53.356;-1.524;2023-03-24T04:45:57;4;3;
60245;PMS5003;46107;53.356;-1.524;2023-03-24T04:48:25;5;3;
60245;PMS5003;46107;53.356;-1.524;2023-03-24T04:50:53;12;6;
60245;PMS5003;46107;53.356;-1.524;2023-03-24T04:53:23;4;2;
60245;PMS5003;46107;53.356;-1.524;2023-03-24T04:55:56;6;3;
60245;PMS5003;46107;53.356;-1.524;2023-03-24T04:58:39;6;1;
60245;PMS5003;46107;53.356;-1.524;2023-03-24T05:01:07;3;3;
60245;PMS5003;46107;53.356;-1.524;2023-03-24T05:03:34;7;3;
60245;PMS5003;46107;53.356;-1.524;2023-03-24T05:06:02;3;3;
60245;PMS5003;46107;53.356;-1.524;2023-03-24T05:08:30;5;3;
60245;PMS5003;46107;53.356;-1.524;2023-03-24T05:10:57;3;2;
60245;PMS5003;46107;53.356;-1.524;2023-03-24T05:13:25;7;4;
60245;PMS5003;46107;53.356;-1.524;2023-03-24T05:15:52;5;4;
60245;PMS5003;46107;53.356;-1.524;2023-03-24T05:18:20;7;3;
60245;PMS5003;46107;53.356;-1.524;2023-03-24T05:20:48;3;3;
60245;PMS5003;46107;53.356;-1.524;2023-03-24T05:23:16;3;2;
60245;PMS5003;46107;53.356;-1.524;2023-03-24T05:25:44;3;3;
60245;PMS5003;46107;53.356;-1.524;2023-03-24T05:28:12;4;2;
60245;PMS5003;46107;53.356;-1.524;2023-03-24T05:30:39;9;5;
60245;PMS5003;46107;53.356;-1.524;2023-03-24T05:33:07;2;2;
60245;PMS5003;46107;53.356;-1.524;2023-03-24T05:35:34;6;3;
60245;PMS5003;46107;53.356;-1.524;2023-03-24T05:38:02;9;4;
60245;PMS5003;46107;53.356;-1.524;2023-03-24T05:40:29;6;4;
60245;PMS5003;46107;53.356;-1.524;2023-03-24T05:42:57;5;3;
60245;PMS5003;46107;53.356;-1.524;2023-03-24T05:45:25;2;2;
60245;PMS5003;46107;53.356;-1.524;2023-03-24T05:47:52;7;2;
60245;PMS5003;46107;53.356;-1.524;2023-03-24T05:50:20;5;4;
60245;PMS5003;46107;53.356;-1.524;2023-03-24T05:52:48;6;4;
60245;PMS5003;46107;53.356;-1.524;2023-03-24T05:55:15;8;5;
60245;PMS5003;46107;53.356;-1.524;2023-03-24T05:57:44;7;5;
60245;PMS5003;46107;53.356;-1.524;2023-03-24T06:00:11;6;3;
60245;PMS5003;46107;53.356;-1.524;2023-03-24T06:02:39;5;5;
60245;PMS5003;46107;53.356;-1.524;2023-03-24T06:05:08;7;3;
60245;PMS5003;46107;53.356;-1.524;2023-03-24T06:07:36;5;3;
60245;PMS5003;46107;53.356;-1.524;2023-03-24T06:10:04;6;4;
60245;PMS5003;46107;53.356;-1.524;2023-03-24T06:12:32;7;6;
60245;PMS5003;46107;53.356;-1.524;2023-03-24T06:15:00;10;6;
60245;PMS5003;46107;53.356;-1.524;2023-03-24T06:17:28;5;5;
60245;PMS5003;46107;53.356;-1.524;2023-03-24T06:19:56;2;2;
60245;PMS5003;46107;53.356;-1.524;2023-03-24T06:22:23;6;4;
60245;PMS5003;46107;53.356;-1.524;2023-03-24T06:24:51;4;4;
60245;PMS5003;46107;53.356;-1.524;2023-03-24T06:27:19;7;5;
60245;PMS5003;46107;53.356;-1.524;2023-03-24T06:29:46;3;3;
60245;PMS5003;46107;53.356;-1.524;2023-03-24T06:32:14;1;1;
60245;PMS5003;46107;53.356;-1.524;2023-03-24T06:34:45;2;2;
60245;PMS5003;46107;53.356;-1.524;2023-03-24T06:37:12;4;4;
60245;PMS5003;46107;53.356;-1.524;2023-03-24T06:39:40;5;2;
60245;PMS5003;46107;53.356;-1.524;2023-03-24T06:42:08;4;3;
60245;PMS5003;46107;53.356;-1.524;2023-03-24T06:44:35;7;4;
60245;PMS5003;46107;53.356;-1.524;2023-03-24T06:47:03;6;2;
60245;PMS5003;46107;53.356;-1.524;2023-03-24T06:49:31;3;2;
60245;PMS5003;46107;53.356;-1.524;2023-03-24T06:51:59;2;1;
60245;PMS5003;46107;53.356;-1.524;2023-03-24T06:54:27;5;2;
60245;PMS5003;46107;53.356;-1.524;2023-03-24T06:56:54;3;1;
60245;PMS5003;46107;53.356;-1.524;2023-03-24T06:59:22;3;3;
60245;PMS5003;46107;53.356;-1.524;2023-03-24T07:01:50;5;3;
60245;PMS5003;46107;53.356;-1.524;2023-03-24T07:04:18;3;3;
60245;PMS5003;46107;53.356;-1.524;2023-03-24T07:06:46;3;2;
60245;PMS5003;46107;53.356;-1.524;2023-03-24T07:09:13;3;2;
60245;PMS5003;46107;53.356;-1.524;2023-03-24T07:11:41;2;2;
60245;PMS5003;46107;53.356;-1.524;2023-03-24T07:14:08;3;3;
60245;PMS5003;46107;53.356;-1.524;2023-03-24T07:16:36;4;3;
60245;PMS5003;46107;53.356;-1.524;2023-03-24T07:19:04;1;1;
60245;PMS5003;46107;53.356;-1.524;2023-03-24T07:21:31;8;3;
60245;PMS5003;46107;53.356;-1.524;2023-03-24T07:23:59;4;3;
60245;PMS5003;46107;53.356;-1.524;2023-03-24T07:26:27;8;4;
60245;PMS5003;46107;53.356;-1.524;2023-03-24T07:28:54;7;4;
60245;PMS5003;46107;53.356;-1.524;2023-03-24T07:31:22;5;4;
60245;PMS5003;46107;53.356;-1.524;2023-03-24T07:33:50;7;4;
60245;PMS5003;46107;53.356;-1.524;2023-03-24T07:36:17;7;5;
60245;PMS5003;46107;53.356;-1.524;2023-03-24T07:38:45;2;2;
60245;PMS5003;46107;53.356;-1.524;2023-03-24T07:41:12;4;4;
60245;PMS5003;46107;53.356;-1.524;2023-03-24T07:43:40;9;5;
60245;PMS5003;46107;53.356;-1.524;2023-03-24T07:46:07;4;4;
60245;PMS5003;46107;53.356;-1.524;2023-03-24T07:48:35;3;1;
60245;PMS5003;46107;53.356;-1.524;2023-03-24T07:51:02;13;7;
60245;PMS5003;46107;53.356;-1.524;2023-03-24T07:53:30;9;6;
60245;PMS5003;46107;53.356;-1.524;2023-03-24T07:55:58;4;4;
60245;PMS5003;46107;53.356;-1.524;2023-03-24T07:58:26;4;3;
60245;PMS5003;46107;53.356;-1.524;2023-03-24T08:00:53;6;3;
60245;PMS5003;46107;53.356;-1.524;2023-03-24T08:03:21;6;4;
60245;PMS5003;46107;53.356;-1.524;2023-03-24T08:05:49;4;4;
60245;PMS5003;46107;53.356;-1.524;2023-03-24T08:08:17;4;4;
60245;PMS5003;46107;53.356;-1.524;2023-03-24T08:10:44;2;2;
60245;PMS5003;46107;53.356;-1.524;2023-03-24T08:13:13;2;0;
60245;PMS5003;46107;53.356;-1.524;2023-03-24T08:15:41;8;4;
60245;PMS5003;46107;53.356;-1.524;2023-03-24T08:18:09;4;3;
60245;PMS5003;46107;53.356;-1.524;2023-03-24T08:20:37;5;5;
60245;PMS5003;46107;53.356;-1.524;2023-03-24T08:23:04;7;4;
60245;PMS5003;46107;53.356;-1.524;2023-03-24T08:25:31;11;5;
60245;PMS5003;46107;53.356;-1.524;2023-03-24T08:28:00;3;3;
60245;PMS5003;46107;53.356;-1.524;2023-03-24T08:30:27;5;4;
60245;PMS5003;46107;53.356;-1.524;2023-03-24T08:32:55;5;3;
60245;PMS5003;46107;53.356;-1.524;2023-03-24T08:35:24;5;2;
60245;PMS5003;46107;53.356;-1.524;2023-03-24T08:37:54;5;3;
60245;PMS5003;46107;53.356;-1.524;2023-03-24T08:40:22;4;4;
60245;PMS5003;46107;53.356;-1.524;2023-03-24T08:42:51;6;5;
60245;PMS5003;46107;53.356;-1.524;2023-03-24T08:45:21;5;5;
60245;PMS5003;46107;53.356;-1.524;2023-03-24T08:47:51;5;4;
60245;PMS5003;46107;53.356;-1.524;2023-03-24T08:50:19;12;4;
60245;PMS5003;46107;53.356;-1.524;2023-03-24T08:52:49;7;3;
60245;PMS5003;46107;53.356;-1.524;2023-03-24T08:55:16;6;4;
60245;PMS5003;46107;53.356;-1.524;2023-03-24T08:57:45;7;5;
60245;PMS5003;46107;53.356;-1.524;2023-03-24T09:00:14;6;4;
60245;PMS5003;46107;53.356;-1.524;2023-03-24T09:02:43;3;3;
60245;PMS5003;46107;53.356;-1.524;2023-03-24T09:05:12;6;3;
60245;PMS5003;46107;53.356;-1.524;2023-03-24T09:07:41;5;3;
60245;PMS5003;46107;53.356;-1.524;2023-03-24T09:10:09;9;6;
60245;PMS5003;46107;53.356;-1.524;2023-03-24T09:12:37;6;4;
60245;PMS5003;46107;53.356;-1.524;2023-03-24T09:15:07;7;6;
60245;PMS5003;46107;53.356;-1.524;2023-03-24T09:17:37;4;4;
60245;PMS5003;46107;53.356;-1.524;2023-03-24T09:20:06;5;3;
60245;PMS5003;46107;53.356;-1.524;2023-03-24T09:22:37;8;4;
60245;PMS5003;46107;53.356;-1.524;2023-03-24T09:25:08;4;3;
60245;PMS5003;46107;53.356;-1.524;2023-03-24T09:27:37;6;2;
60245;PMS5003;46107;53.356;-1.524;2023-03-24T09:30:05;5;4;
60245;PMS5003;46107;53.356;-1.524;2023-03-24T09:32:34;3;3;
60245;PMS5003;46107;53.356;-1.524;2023-03-24T09:35:02;7;3;
60245;PMS5003;46107;53.356;-1.524;2023-03-24T09:37:31;7;3;
60245;PMS5003;46107;53.356;-1.524;2023-03-24T09:39:59;5;4;
60245;PMS5003;46107;53.356;-1.524;2023-03-24T09:42:27;7;6;
60245;PMS5003;46107;53.356;-1.524;2023-03-24T09:44:58;5;5;
60245;PMS5003;46107;53.356;-1.524;2023-03-24T09:47:32;5;4;
60245;PMS5003;46107;53.356;-1.524;2023-03-24T09:50:06;5;3;
60245;PMS5003;46107;53.356;-1.524;2023-03-24T09:52:43;4;2;
60245;PMS5003;46107;53.356;-1.524;2023-03-24T09:55:15;4;4;
60245;PMS5003;46107;53.356;-1.524;2023-03-24T09:57:47;3;3;
60245;PMS5003;46107;53.356;-1.524;2023-03-24T10:00:18;10;9;
60245;PMS5003;46107;53.356;-1.524;2023-03-24T10:02:47;6;3;
60245;PMS5003;46107;53.356;-1.524;2023-03-24T10:05:17;3;3;
60245;PMS5003;46107;53.356;-1.524;2023-03-24T10:07:53;5;5;
60245;PMS5003;46107;53.356;-1.524;2023-03-24T10:10:28;7;6;
60245;PMS5003;46107;53.356;-1.524;2023-03-24T10:13:05;6;3;
60245;PMS5003;46107;53.356;-1.524;2023-03-24T10:15:35;3;1;
60245;PMS5003;46107;53.356;-1.524;2023-03-24T10:18:22;7;3;
60245;PMS5003;46107;53.356;-1.524;2023-03-24T10:21:00;3;3;
60245;PMS5003;46107;53.356;-1.524;2023-03-24T10:23:37;5;4;
60245;PMS5003;46107;53.356;-1.524;2023-03-24T10:23:44;5;4;
60245;PMS5003;46107;53.356;-1.524;2023-03-24T10:26:24;5;3;
60245;PMS5003;46107;53.356;-1.524;2023-03-24T10:29:04;4;2;
60245;PMS5003;46107;53.356;-1.524;2023-03-24T10:31:42;5;4;
60245;PMS5003;46107;53.356;-1.524;2023-03-24T10:34:14;5;3;
60245;PMS5003;46107;53.356;-1.524;2023-03-24T10:36:42;8;4;
60245;PMS5003;46107;53.356;-1.524;2023-03-24T10:39:13;3;3;
60245;PMS5003;46107;53.356;-1.524;2023-03-24T10:41:42;4;3;
60245;PMS5003;46107;53.356;-1.524;2023-03-24T10:44:10;4;3;
60245;PMS5003;46107;53.356;-1.524;2023-03-24T10:46:42;4;3;
60245;PMS5003;46107;53.356;-1.524;2023-03-24T10:49:16;5;4;
60245;PMS5003;46107;53.356;-1.524;2023-03-24T10:51:46;7;5;
60245;PMS5003;46107;53.356;-1.524;2023-03-24T10:54:16;4;4;
60245;PMS5003;46107;53.356;-1.524;2023-03-24T10:56:45;5;2;
60245;PMS5003;46107;53.356;-1.524;2023-03-24T10:59:19;7;4;
60245;PMS5003;46107;53.356;-1.524;2023-03-24T11:01:54;7;4;
60245;PMS5003;46107;53.356;-1.524;2023-03-24T11:04:24;3;3;
60245;PMS5003;46107;53.356;-1.524;2023-03-24T11:06:53;4;3;
60245;PMS5003;46107;53.356;-1.524;2023-03-24T11:09:26;4;3;
60245;PMS5003;46107;53.356;-1.524;2023-03-24T11:11:54;6;6;
60245;PMS5003;46107;53.356;-1.524;2023-03-24T11:14:22;1;1;
60245;PMS5003;46107;53.356;-1.524;2023-03-24T11:16:51;3;3;
60245;PMS5003;46107;53.356;-1.524;2023-03-24T11:19:27;4;3;
60245;PMS5003;46107;53.356;-1.524;2023-03-24T11:21:56;5;3;
60245;PMS5003;46107;53.356;-1.524;2023-03-24T11:24:28;2;1;
60245;PMS5003;46107;53.356;-1.524;2023-03-24T11:27:00;2;2;
60245;PMS5003;46107;53.356;-1.524;2023-03-24T11:29:28;3;2;
60245;PMS5003;46107;53.356;-1.524;2023-03-24T11:31:59;5;1;
60245;PMS5003;46107;53.356;-1.524;2023-03-24T11:34:29;1;1;
60245;PMS5003;46107;53.356;-1.524;2023-03-24T11:36:59;2;0;
60245;PMS5003;46107;53.356;-1.524;2023-03-24T11:39:29;0;0;
60245;PMS5003;46107;53.356;-1.524;2023-03-24T11:42:00;1;1;
60245;PMS5003;46107;53.356;-1.524;2023-03-24T11:44:30;0;0;
60245;PMS5003;46107;53.356;-1.524;2023-03-24T11:47:09;1;1;
60245;PMS5003;46107;53.356;-1.524;2023-03-24T11:49:40;1;1;
60245;PMS5003;46107;53.356;-1.524;2023-03-24T11:52:14;0;0;
60245;PMS5003;46107;53.356;-1.524;2023-03-24T11:54:48;1;0;
60245;PMS5003;46107;53.356;-1.524;2023-03-24T11:57:17;1;1;
60245;PMS5003;46107;53.356;-1.524;2023-03-24T11:59:53;3;2;
60245;PMS5003;46107;53.356;-1.524;2023-03-24T12:02:31;4;2;
60245;PMS5003;46107;53.356;-1.524;2023-03-24T12:05:16;0;0;
60245;PMS5003;46107;53.356;-1.524;2023-03-24T12:07:57;1;1;
60245;PMS5003;46107;53.356;-1.524;2023-03-24T12:10:36;0;0;
60245;PMS5003;46107;53.356;-1.524;2023-03-24T12:13:11;2;1;
60245;PMS5003;46107;53.356;-1.524;2023-03-24T12:15:47;2;1;
60245;PMS5003;46107;53.356;-1.524;2023-03-24T12:18:26;2;1;
60245;PMS5003;46107;53.356;-1.524;2023-03-24T12:21:03;1;1;
60245;PMS5003;46107;53.356;-1.524;2023-03-24T12:23:40;0;0;
60245;PMS5003;46107;53.356;-1.524;2023-03-24T12:26:16;1;1;
60245;PMS5003;46107;53.356;-1.524;2023-03-24T12:28:51;3;0;
60245;PMS5003;46107;53.356;-1.524;2023-03-24T12:31:28;4;3;
60245;PMS5003;46107;53.356;-1.524;2023-03-24T12:34:12;1;1;
60245;PMS5003;46107;53.356;-1.524;2023-03-24T12:37:01;1;1;
60245;PMS5003;46107;53.356;-1.524;2023-03-24T12:39:35;2;2;
60245;PMS5003;46107;53.356;-1.524;2023-03-24T12:42:13;2;2;
60245;PMS5003;46107;53.356;-1.524;2023-03-24T12:44:45;0;0;
60245;PMS5003;46107;53.356;-1.524;2023-03-24T12:47:38;1;1;
60245;PMS5003;46107;53.356;-1.524;2023-03-24T12:50:20;1;1;
60245;PMS5003;46107;53.356;-1.524;2023-03-24T12:53:06;2;2;
60245;PMS5003;46107;53.356;-1.524;2023-03-24T12:55:45;1;1;
60245;PMS5003;46107;53.356;-1.524;2023-03-24T12:58:18;2;0;
60245;PMS5003;46107;53.356;-1.524;2023-03-24T13:00:55;3;1;
60245;PMS5003;46107;53.356;-1.524;2023-03-24T13:03:28;1;1;
60245;PMS5003;46107;53.356;-1.524;2023-03-24T13:06:06;1;1;
60245;PMS5003;46107;53.356;-1.524;2023-03-24T13:08:42;0;0;
60245;PMS5003;46107;53.356;-1.524;2023-03-24T13:11:15;5;3;
60245;PMS5003;46107;53.356;-1.524;2023-03-24T13:13:46;2;1;
60245;PMS5003;46107;53.356;-1.524;2023-03-24T13:16:15;4;4;
60245;PMS5003;46107;53.356;-1.524;2023-03-24T13:18:47;1;1;
60245;PMS5003;46107;53.356;-1.524;2023-03-24T13:21:18;0;0;
60245;PMS5003;46107;53.356;-1.524;2023-03-24T13:23:49;2;2;
60245;PMS5003;46107;53.356;-1.524;2023-03-24T13:26:23;1;0;
60245;PMS5003;46107;53.356;-1.524;2023-03-24T13:29:06;1;1;
60245;PMS5003;46107;53.356;-1.524;2023-03-24T13:31:48;2;1;
60245;PMS5003;46107;53.356;-1.524;2023-03-24T13:34:22;2;2;
60245;PMS5003;46107;53.356;-1.524;2023-03-24T13:36:53;2;1;
60245;PMS5003;46107;53.356;-1.524;2023-03-24T13:39:26;4;2;
60245;PMS5003;46107;53.356;-1.524;2023-03-24T13:41:56;1;0;
60245;PMS5003;46107;53.356;-1.524;2023-03-24T13:44:25;1;0;
60245;PMS5003;46107;53.356;-1.524;2023-03-24T13:47:05;4;1;
60245;PMS5003;46107;53.356;-1.524;2023-03-24T13:49:37;1;1;
60245;PMS5003;46107;53.356;-1.524;2023-03-24T13:52:20;2;2;
60245;PMS5003;46107;53.356;-1.524;2023-03-24T13:54:53;2;0;
60245;PMS5003;46107;53.356;-1.524;2023-03-24T13:57:24;3;1;
60245;PMS5003;46107;53.356;-1.524;2023-03-24T14:00:01;5;2;
60245;PMS5003;46107;53.356;-1.524;2023-03-24T14:02:43;7;2;
60245;PMS5003;46107;53.356;-1.524;2023-03-24T14:05:28;1;1;
60245;PMS5003;46107;53.356;-1.524;2023-03-24T14:08:15;1;1;
60245;PMS5003;46107;53.356;-1.524;2023-03-24T14:10:44;1;1;
60245;PMS5003;46107;53.356;-1.524;2023-03-24T14:13:19;1;1;
60245;PMS5003;46107;53.356;-1.524;2023-03-24T14:15:48;0;0;
60245;PMS5003;46107;53.356;-1.524;2023-03-24T14:18:49;0;0;
60245;PMS5003;46107;53.356;-1.524;2023-03-24T14:21:17;2;0;
60245;PMS5003;46107;53.356;-1.524;2023-03-24T14:23:55;2;0;
60245;PMS5003;46107;53.356;-1.524;2023-03-24T14:26:28;0;0;
60245;PMS5003;46107;53.356;-1.524;2023-03-24T14:28:59;0;0;
60245;PMS5003;46107;53.356;-1.524;2023-03-24T14:31:27;1;0;
60245;PMS5003;46107;53.356;-1.524;2023-03-24T14:33:57;1;1;
60245;PMS5003;46107;53.356;-1.524;2023-03-24T14:36:28;0;0;
60245;PMS5003;46107;53.356;-1.524;2023-03-24T14:39:05;1;1;
60245;PMS5003;46107;53.356;-1.524;2023-03-24T14:41:45;1;0;
60245;PMS5003;46107;53.356;-1.524;2023-03-24T14:44:12;2;1;
60245;PMS5003;46107;53.356;-1.524;2023-03-24T14:46:40;1;1;
60245;PMS5003;46107;53.356;-1.524;2023-03-24T14:49:14;3;2;
60245;PMS5003;46107;53.356;-1.524;2023-03-24T14:51:49;0;0;
60245;PMS5003;46107;53.356;-1.524;2023-03-24T14:54:25;3;2;
60245;PMS5003;46107;53.356;-1.524;2023-03-24T14:56:58;0;0;
60245;PMS5003;46107;53.356;-1.524;2023-03-24T14:59:32;0;0;
60245;PMS5003;46107;53.356;-1.524;2023-03-24T15:02:12;1;0;
60245;PMS5003;46107;53.356;-1.524;2023-03-24T15:05:21;2;1;
60245;PMS5003;46107;53.356;-1.524;2023-03-24T15:07:58;3;1;
60245;PMS5003;46107;53.356;-1.524;2023-03-24T15:10:32;1;1;
60245;PMS5003;46107;53.356;-1.524;2023-03-24T15:13:05;2;1;
60245;PMS5003;46107;53.356;-1.524;2023-03-24T15:15:51;1;0;
60245;PMS5003;46107;53.356;-1.524;2023-03-24T15:18:19;0;0;
60245;PMS5003;46107;53.356;-1.524;2023-03-24T15:20:48;3;1;
60245;PMS5003;46107;53.356;-1.524;2023-03-24T15:23:17;5;3;
60245;PMS5003;46107;53.356;-1.524;2023-03-24T15:25:46;29;23;
60245;PMS5003;46107;53.356;-1.524;2023-03-24T15:28:16;22;17;
60245;PMS5003;46107;53.356;-1.524;2023-03-24T15:30:46;46;39;
60245;PMS5003;46107;53.356;-1.524;2023-03-24T15:33:14;29;27;
60245;PMS5003;46107;53.356;-1.524;2023-03-24T15:35:43;10;10;
60245;PMS5003;46107;53.356;-1.524;2023-03-24T15:38:20;6;6;
60245;PMS5003;46107;53.356;-1.524;2023-03-24T15:40:55;13;10;
60245;PMS5003;46107;53.356;-1.524;2023-03-24T15:43:26;21;18;
60245;PMS5003;46107;53.356;-1.524;2023-03-24T15:45:54;11;11;
60245;PMS5003;46107;53.356;-1.524;2023-03-24T15:48:23;8;8;
60245;PMS5003;46107;53.356;-1.524;2023-03-24T15:50:54;7;7;
60245;PMS5003;46107;53.356;-1.524;2023-03-24T15:53:25;5;5;
60245;PMS5003;46107;53.356;-1.524;2023-03-24T15:56:28;7;5;
60245;PMS5003;46107;53.356;-1.524;2023-03-24T15:59:05;6;5;
60245;PMS5003;46107;53.356;-1.524;2023-03-24T16:01:39;1;1;
60245;PMS5003;46107;53.356;-1.524;2023-03-24T16:04:10;1;1;
60245;PMS5003;46107;53.356;-1.524;2023-03-24T16:06:42;6;6;
60245;PMS5003;46107;53.356;-1.524;2023-03-24T16:09:15;19;16;
60245;PMS5003;46107;53.356;-1.524;2023-03-24T16:11:45;7;5;
60245;PMS5003;46107;53.356;-1.524;2023-03-24T16:14:17;26;21;
60245;PMS5003;46107;53.356;-1.524;2023-03-24T16:16:48;9;7;
60245;PMS5003;46107;53.356;-1.524;2023-03-24T16:19:19;12;11;
60245;PMS5003;46107;53.356;-1.524;2023-03-24T16:21:48;6;6;
60245;PMS5003;46107;53.356;-1.524;2023-03-24T16:24:15;8;7;
60245;PMS5003;46107;53.356;-1.524;2023-03-24T16:26:43;11;8;
60245;PMS5003;46107;53.356;-1.524;2023-03-24T16:29:13;6;6;
60245;PMS5003;46107;53.356;-1.524;2023-03-24T16:31:42;5;3;
60245;PMS5003;46107;53.356;-1.524;2023-03-24T16:34:15;5;5;
60245;PMS5003;46107;53.356;-1.524;2023-03-24T16:36:44;2;2;
60245;PMS5003;46107;53.356;-1.524;2023-03-24T16:39:13;4;2;
60245;PMS5003;46107;53.356;-1.524;2023-03-24T16:41:41;1;1;
60245;PMS5003;46107;53.356;-1.524;2023-03-24T16:44:09;2;2;
60245;PMS5003;46107;53.356;-1.524;2023-03-24T16:46:37;1;1;
60245;PMS5003;46107;53.356;-1.524;2023-03-24T16:49:06;3;2;
60245;PMS5003;46107;53.356;-1.524;2023-03-24T16:51:37;1;1;
60245;PMS5003;46107;53.356;-1.524;2023-03-24T16:54:05;2;1;
60245;PMS5003;46107;53.356;-1.524;2023-03-24T16:56:34;0;0;
60245;PMS5003;46107;53.356;-1.524;2023-03-24T16:59:03;4;2;
60245;PMS5003;46107;53.356;-1.524;2023-03-24T17:01:32;6;3;
60245;PMS5003;46107;53.356;-1.524;2023-03-24T17:04:02;7;4;
60245;PMS5003;46107;53.356;-1.524;2023-03-24T17:06:31;3;1;